sensor_id;sensor_type;location;lat;lon;timestamp;temperature;humidity
4677;DHT22;2352;48.180;11.478;2022-07-29T00:02:18;23.00;73.90
4677;DHT22;2352;48.180;11.478;2022-07-29T00:05:21;23.00;74.50
4677;DHT22;2352;48.180;11.478;2022-07-29T00:08:24;23.10;74.10
4677;DHT22;2352;48.180;11.478;2022-07-29T00:11:29;23.20;74.00
4677;DHT22;2352;48.180;11.478;2022-07-29T00:14:31;23.30;73.90
4677;DHT22;2352;48.180;11.478;2022-07-29T00:17:34;23.30;73.70
4677;DHT22;2352;48.180;11.478;2022-07-29T00:20:37;23.30;74.40
4677;DHT22;2352;48.180;11.478;2022-07-29T00:23:40;23.20;76.00
4677;DHT22;2352;48.180;11.478;2022-07-29T00:26:44;22.90;77.40
4677;DHT22;2352;48.180;11.478;2022-07-29T00:29:47;23.10;77.50
4677;DHT22;2352;48.180;11.478;2022-07-29T00:32:50;23.10;77.60
4677;DHT22;2352;48.180;11.478;2022-07-29T00:35:53;23.20;77.80
4677;DHT22;2352;48.180;11.478;2022-07-29T00:38:56;23.20;77.60
4677;DHT22;2352;48.180;11.478;2022-07-29T00:42:02;23.20;77.40
4677;DHT22;2352;48.180;11.478;2022-07-29T00:45:05;23.20;78.00
4677;DHT22;2352;48.180;11.478;2022-07-29T00:48:08;23.30;77.40
4677;DHT22;2352;48.180;11.478;2022-07-29T00:51:12;23.40;77.20
4677;DHT22;2352;48.180;11.478;2022-07-29T00:54:15;23.30;77.60
4677;DHT22;2352;48.180;11.478;2022-07-29T00:57:20;23.40;76.40
4677;DHT22;2352;48.180;11.478;2022-07-29T01:00:26;23.40;75.60
4677;DHT22;2352;48.180;11.478;2022-07-29T01:03:29;23.20;76.00
4677;DHT22;2352;48.180;11.478;2022-07-29T01:06:32;23.00;77.50
4677;DHT22;2352;48.180;11.478;2022-07-29T01:09:37;23.10;76.80
4677;DHT22;2352;48.180;11.478;2022-07-29T01:12:51;23.20;76.40
4677;DHT22;2352;48.180;11.478;2022-07-29T01:15:57;23.30;76.80
4677;DHT22;2352;48.180;11.478;2022-07-29T01:19:19;23.40;76.40
4677;DHT22;2352;48.180;11.478;2022-07-29T01:22:31;23.40;75.30
4677;DHT22;2352;48.180;11.478;2022-07-29T01:25:48;23.40;75.10
4677;DHT22;2352;48.180;11.478;2022-07-29T01:29:08;23.40;76.70
4677;DHT22;2352;48.180;11.478;2022-07-29T01:32:17;23.40;75.10
4677;DHT22;2352;48.180;11.478;2022-07-29T01:35:33;23.40;76.40
4677;DHT22;2352;48.180;11.478;2022-07-29T01:38:39;23.50;73.70
4677;DHT22;2352;48.180;11.478;2022-07-29T01:41:49;23.50;75.90
4677;DHT22;2352;48.180;11.478;2022-07-29T01:44:59;23.40;73.00
4677;DHT22;2352;48.180;11.478;2022-07-29T01:48:06;23.30;73.80
4677;DHT22;2352;48.180;11.478;2022-07-29T01:51:16;23.30;75.60
4677;DHT22;2352;48.180;11.478;2022-07-29T01:54:26;23.40;75.70
4677;DHT22;2352;48.180;11.478;2022-07-29T01:57:34;23.40;75.80
4677;DHT22;2352;48.180;11.478;2022-07-29T02:00:40;23.50;76.20
4677;DHT22;2352;48.180;11.478;2022-07-29T02:03:45;23.50;77.70
4677;DHT22;2352;48.180;11.478;2022-07-29T02:06:51;23.50;77.50
4677;DHT22;2352;48.180;11.478;2022-07-29T02:09:56;23.50;77.50
4677;DHT22;2352;48.180;11.478;2022-07-29T02:13:02;23.50;78.70
4677;DHT22;2352;48.180;11.478;2022-07-29T02:16:08;23.50;78.60
4677;DHT22;2352;48.180;11.478;2022-07-29T02:19:12;23.50;78.70
4677;DHT22;2352;48.180;11.478;2022-07-29T02:22:18;23.50;79.30
4677;DHT22;2352;48.180;11.478;2022-07-29T02:25:22;23.50;78.80
4677;DHT22;2352;48.180;11.478;2022-07-29T02:28:39;23.50;79.40
4677;DHT22;2352;48.180;11.478;2022-07-29T02:31:44;23.40;78.90
4677;DHT22;2352;48.180;11.478;2022-07-29T02:34:49;23.40;76.20
4677;DHT22;2352;48.180;11.478;2022-07-29T02:37:53;23.40;76.70
4677;DHT22;2352;48.180;11.478;2022-07-29T02:41:11;23.40;77.80
4677;DHT22;2352;48.180;11.478;2022-07-29T02:44:21;23.30;76.80
4677;DHT22;2352;48.180;11.478;2022-07-29T02:47:35;23.20;76.50
4677;DHT22;2352;48.180;11.478;2022-07-29T02:50:48;23.20;77.60
4677;DHT22;2352;48.180;11.478;2022-07-29T02:53:53;23.20;76.50
4677;DHT22;2352;48.180;11.478;2022-07-29T02:56:59;23.20;77.10
4677;DHT22;2352;48.180;11.478;2022-07-29T03:00:07;23.30;77.20
4677;DHT22;2352;48.180;11.478;2022-07-29T03:03:14;23.30;77.20
4677;DHT22;2352;48.180;11.478;2022-07-29T03:06:19;23.20;77.20
4677;DHT22;2352;48.180;11.478;2022-07-29T03:09:40;23.10;77.80
4677;DHT22;2352;48.180;11.478;2022-07-29T03:12:44;23.00;78.30
4677;DHT22;2352;48.180;11.478;2022-07-29T03:15:47;23.00;78.60
4677;DHT22;2352;48.180;11.478;2022-07-29T03:18:53;23.00;79.10
4677;DHT22;2352;48.180;11.478;2022-07-29T03:21:57;23.00;79.00
4677;DHT22;2352;48.180;11.478;2022-07-29T03:25:07;22.90;79.60
4677;DHT22;2352;48.180;11.478;2022-07-29T03:28:10;22.90;79.50
4677;DHT22;2352;48.180;11.478;2022-07-29T03:31:13;22.90;80.00
4677;DHT22;2352;48.180;11.478;2022-07-29T03:34:18;22.90;79.80
4677;DHT22;2352;48.180;11.478;2022-07-29T03:37:24;22.90;80.30
4677;DHT22;2352;48.180;11.478;2022-07-29T03:40:32;22.80;80.10
4677;DHT22;2352;48.180;11.478;2022-07-29T03:43:38;22.70;80.90
4677;DHT22;2352;48.180;11.478;2022-07-29T03:46:51;22.60;81.30
4677;DHT22;2352;48.180;11.478;2022-07-29T03:50:01;22.50;81.40
4677;DHT22;2352;48.180;11.478;2022-07-29T03:53:11;22.40;81.70
4677;DHT22;2352;48.180;11.478;2022-07-29T03:56:15;22.30;82.10
4677;DHT22;2352;48.180;11.478;2022-07-29T03:59:20;22.40;82.30
4677;DHT22;2352;48.180;11.478;2022-07-29T04:02:24;22.40;82.60
4677;DHT22;2352;48.180;11.478;2022-07-29T04:05:33;22.40;82.80
4677;DHT22;2352;48.180;11.478;2022-07-29T04:08:35;22.40;82.90
4677;DHT22;2352;48.180;11.478;2022-07-29T04:11:40;22.50;83.10
4677;DHT22;2352;48.180;11.478;2022-07-29T04:15:04;22.30;82.60
4677;DHT22;2352;48.180;11.478;2022-07-29T04:18:07;22.30;83.30
4677;DHT22;2352;48.180;11.478;2022-07-29T04:21:11;22.20;84.20
4677;DHT22;2352;48.180;11.478;2022-07-29T04:24:14;22.30;84.50
4677;DHT22;2352;48.180;11.478;2022-07-29T04:27:18;22.30;84.40
4677;DHT22;2352;48.180;11.478;2022-07-29T04:30:21;22.30;84.90
4677;DHT22;2352;48.180;11.478;2022-07-29T04:33:24;22.30;85.40
4677;DHT22;2352;48.180;11.478;2022-07-29T04:36:29;22.30;84.80
4677;DHT22;2352;48.180;11.478;2022-07-29T04:39:31;22.30;85.50
4677;DHT22;2352;48.180;11.478;2022-07-29T04:42:34;22.30;85.20
4677;DHT22;2352;48.180;11.478;2022-07-29T04:45:47;22.30;85.00
4677;DHT22;2352;48.180;11.478;2022-07-29T04:48:50;22.30;85.60
4677;DHT22;2352;48.180;11.478;2022-07-29T04:51:54;22.30;86.20
4677;DHT22;2352;48.180;11.478;2022-07-29T04:54:57;22.40;86.20
4677;DHT22;2352;48.180;11.478;2022-07-29T04:58:00;22.40;86.00
4677;DHT22;2352;48.180;11.478;2022-07-29T05:01:03;22.40;86.10
4677;DHT22;2352;48.180;11.478;2022-07-29T05:04:06;22.40;86.00
4677;DHT22;2352;48.180;11.478;2022-07-29T05:07:11;22.40;86.20
4677;DHT22;2352;48.180;11.478;2022-07-29T05:10:14;22.50;86.10
4677;DHT22;2352;48.180;11.478;2022-07-29T05:13:17;22.50;85.70
4677;DHT22;2352;48.180;11.478;2022-07-29T05:16:19;22.60;85.90
4677;DHT22;2352;48.180;11.478;2022-07-29T05:19:23;22.60;86.80
4677;DHT22;2352;48.180;11.478;2022-07-29T05:22:27;22.60;85.60
4677;DHT22;2352;48.180;11.478;2022-07-29T05:25:30;22.60;85.70
4677;DHT22;2352;48.180;11.478;2022-07-29T05:28:45;22.60;85.80
4677;DHT22;2352;48.180;11.478;2022-07-29T05:31:48;22.60;85.30
4677;DHT22;2352;48.180;11.478;2022-07-29T05:34:52;22.60;85.40
4677;DHT22;2352;48.180;11.478;2022-07-29T05:37:56;22.70;85.50
4677;DHT22;2352;48.180;11.478;2022-07-29T05:40:59;22.70;85.70
4677;DHT22;2352;48.180;11.478;2022-07-29T05:44:02;22.70;86.00
4677;DHT22;2352;48.180;11.478;2022-07-29T05:47:06;22.70;85.70
4677;DHT22;2352;48.180;11.478;2022-07-29T05:50:09;22.80;85.20
4677;DHT22;2352;48.180;11.478;2022-07-29T05:53:13;22.70;84.80
4677;DHT22;2352;48.180;11.478;2022-07-29T05:56:21;22.70;85.50
4677;DHT22;2352;48.180;11.478;2022-07-29T05:59:25;22.80;85.50
4677;DHT22;2352;48.180;11.478;2022-07-29T06:02:31;22.80;84.20
4677;DHT22;2352;48.180;11.478;2022-07-29T06:05:34;22.70;84.60
4677;DHT22;2352;48.180;11.478;2022-07-29T06:08:38;22.70;84.80
4677;DHT22;2352;48.180;11.478;2022-07-29T06:11:41;22.80;84.70
4677;DHT22;2352;48.180;11.478;2022-07-29T06:14:44;22.90;84.20
4677;DHT22;2352;48.180;11.478;2022-07-29T06:17:54;22.90;83.40
4677;DHT22;2352;48.180;11.478;2022-07-29T06:21:07;23.00;83.80
4677;DHT22;2352;48.180;11.478;2022-07-29T06:24:13;23.00;82.90
4677;DHT22;2352;48.180;11.478;2022-07-29T06:27:16;23.10;82.50
4677;DHT22;2352;48.180;11.478;2022-07-29T06:30:19;23.10;82.50
4677;DHT22;2352;48.180;11.478;2022-07-29T06:33:22;23.10;82.10
4677;DHT22;2352;48.180;11.478;2022-07-29T06:36:25;23.10;82.30
4677;DHT22;2352;48.180;11.478;2022-07-29T06:39:30;23.10;82.20
4677;DHT22;2352;48.180;11.478;2022-07-29T06:42:32;23.10;80.60
4677;DHT22;2352;48.180;11.478;2022-07-29T06:45:35;23.10;81.20
4677;DHT22;2352;48.180;11.478;2022-07-29T06:48:40;23.20;80.80
4677;DHT22;2352;48.180;11.478;2022-07-29T06:51:44;23.30;80.10
4677;DHT22;2352;48.180;11.478;2022-07-29T06:54:49;23.30;80.10
4677;DHT22;2352;48.180;11.478;2022-07-29T06:57:52;23.30;79.30
4677;DHT22;2352;48.180;11.478;2022-07-29T07:00:55;23.30;79.00
4677;DHT22;2352;48.180;11.478;2022-07-29T07:03:58;23.30;79.10
4677;DHT22;2352;48.180;11.478;2022-07-29T07:07:02;23.30;77.90
4677;DHT22;2352;48.180;11.478;2022-07-29T07:10:07;23.10;77.60
4677;DHT22;2352;48.180;11.478;2022-07-29T07:13:11;23.20;78.20
4677;DHT22;2352;48.180;11.478;2022-07-29T07:16:14;23.40;76.00
4677;DHT22;2352;48.180;11.478;2022-07-29T07:19:17;23.50;75.40
4677;DHT22;2352;48.180;11.478;2022-07-29T07:22:20;23.20;75.70
4677;DHT22;2352;48.180;11.478;2022-07-29T07:25:25;22.90;76.70
4677;DHT22;2352;48.180;11.478;2022-07-29T07:28:28;23.20;76.90
4677;DHT22;2352;48.180;11.478;2022-07-29T07:31:31;23.40;77.90
4677;DHT22;2352;48.180;11.478;2022-07-29T07:34:35;23.70;75.90
4677;DHT22;2352;48.180;11.478;2022-07-29T07:37:39;23.60;74.20
4677;DHT22;2352;48.180;11.478;2022-07-29T07:40:44;23.60;72.20
4677;DHT22;2352;48.180;11.478;2022-07-29T07:43:48;23.70;73.70
4677;DHT22;2352;48.180;11.478;2022-07-29T07:46:51;23.90;72.00
4677;DHT22;2352;48.180;11.478;2022-07-29T07:49:55;24.00;71.20
4677;DHT22;2352;48.180;11.478;2022-07-29T07:52:58;24.10;70.90
4677;DHT22;2352;48.180;11.478;2022-07-29T07:56:05;24.10;69.00
4677;DHT22;2352;48.180;11.478;2022-07-29T07:59:13;24.20;69.60
4677;DHT22;2352;48.180;11.478;2022-07-29T08:02:16;24.40;69.40
4677;DHT22;2352;48.180;11.478;2022-07-29T08:05:19;24.30;70.30
4677;DHT22;2352;48.180;11.478;2022-07-29T08:08:22;24.30;69.00
4677;DHT22;2352;48.180;11.478;2022-07-29T08:11:27;24.20;70.30
4677;DHT22;2352;48.180;11.478;2022-07-29T08:14:34;24.00;68.50
4677;DHT22;2352;48.180;11.478;2022-07-29T08:17:37;24.20;70.10
4677;DHT22;2352;48.180;11.478;2022-07-29T08:20:40;24.30;69.90
4677;DHT22;2352;48.180;11.478;2022-07-29T08:23:44;24.40;70.60
4677;DHT22;2352;48.180;11.478;2022-07-29T08:27:01;24.60;70.40
4677;DHT22;2352;48.180;11.478;2022-07-29T08:30:22;24.50;70.20
4677;DHT22;2352;48.180;11.478;2022-07-29T08:33:25;24.50;70.50
4677;DHT22;2352;48.180;11.478;2022-07-29T08:36:27;24.60;71.40
4677;DHT22;2352;48.180;11.478;2022-07-29T08:39:30;24.90;71.20
4677;DHT22;2352;48.180;11.478;2022-07-29T08:42:35;25.00;68.70
4677;DHT22;2352;48.180;11.478;2022-07-29T08:45:42;25.20;69.60
4677;DHT22;2352;48.180;11.478;2022-07-29T08:48:49;25.40;68.30
4677;DHT22;2352;48.180;11.478;2022-07-29T08:51:53;25.20;68.00
4677;DHT22;2352;48.180;11.478;2022-07-29T08:54:56;25.30;68.40
4677;DHT22;2352;48.180;11.478;2022-07-29T08:58:01;25.40;69.40
4677;DHT22;2352;48.180;11.478;2022-07-29T09:01:05;25.50;68.70
4677;DHT22;2352;48.180;11.478;2022-07-29T09:04:13;25.60;67.50
4677;DHT22;2352;48.180;11.478;2022-07-29T09:07:18;25.50;67.20
4677;DHT22;2352;48.180;11.478;2022-07-29T09:10:21;25.50;65.90
4677;DHT22;2352;48.180;11.478;2022-07-29T09:13:25;25.50;66.30
4677;DHT22;2352;48.180;11.478;2022-07-29T09:16:47;25.50;68.80
4677;DHT22;2352;48.180;11.478;2022-07-29T09:20:08;25.70;68.30
4677;DHT22;2352;48.180;11.478;2022-07-29T09:23:12;25.90;68.80
4677;DHT22;2352;48.180;11.478;2022-07-29T09:26:28;26.10;67.50
4677;DHT22;2352;48.180;11.478;2022-07-29T09:29:32;26.30;67.20
4677;DHT22;2352;48.180;11.478;2022-07-29T09:32:55;26.30;65.00
4677;DHT22;2352;48.180;11.478;2022-07-29T09:36:04;26.30;65.00
4677;DHT22;2352;48.180;11.478;2022-07-29T09:39:07;26.30;64.90
4677;DHT22;2352;48.180;11.478;2022-07-29T09:42:11;26.40;65.40
4677;DHT22;2352;48.180;11.478;2022-07-29T09:45:28;26.40;64.10
4677;DHT22;2352;48.180;11.478;2022-07-29T09:48:31;26.40;65.60
4677;DHT22;2352;48.180;11.478;2022-07-29T09:51:35;26.40;66.20
4677;DHT22;2352;48.180;11.478;2022-07-29T09:54:39;26.10;64.20
4677;DHT22;2352;48.180;11.478;2022-07-29T09:57:43;26.00;64.80
4677;DHT22;2352;48.180;11.478;2022-07-29T10:00:49;25.70;64.80
4677;DHT22;2352;48.180;11.478;2022-07-29T10:03:53;25.60;66.10
4677;DHT22;2352;48.180;11.478;2022-07-29T10:06:57;25.70;66.70
4677;DHT22;2352;48.180;11.478;2022-07-29T10:10:07;25.80;65.30
4677;DHT22;2352;48.180;11.478;2022-07-29T10:13:12;25.90;66.10
4677;DHT22;2352;48.180;11.478;2022-07-29T10:16:18;25.70;65.30
4677;DHT22;2352;48.180;11.478;2022-07-29T10:19:21;25.60;65.20
4677;DHT22;2352;48.180;11.478;2022-07-29T10:22:24;25.70;65.60
4677;DHT22;2352;48.180;11.478;2022-07-29T10:25:47;25.80;65.40
4677;DHT22;2352;48.180;11.478;2022-07-29T10:28:50;26.00;66.80
4677;DHT22;2352;48.180;11.478;2022-07-29T10:35:33;26.10;64.20
4677;DHT22;2352;48.180;11.478;2022-07-29T10:38:48;26.10;64.10
4677;DHT22;2352;48.180;11.478;2022-07-29T10:42:11;26.20;65.70
4677;DHT22;2352;48.180;11.478;2022-07-29T10:45:21;26.50;64.10
4677;DHT22;2352;48.180;11.478;2022-07-29T10:48:26;26.80;64.20
4677;DHT22;2352;48.180;11.478;2022-07-29T10:51:51;27.00;62.50
4677;DHT22;2352;48.180;11.478;2022-07-29T10:54:55;27.20;62.10
4677;DHT22;2352;48.180;11.478;2022-07-29T10:58:11;27.40;61.60
4677;DHT22;2352;48.180;11.478;2022-07-29T11:01:29;27.40;62.20
4677;DHT22;2352;48.180;11.478;2022-07-29T11:05:02;27.50;59.90
4677;DHT22;2352;48.180;11.478;2022-07-29T11:08:18;27.20;60.90
4677;DHT22;2352;48.180;11.478;2022-07-29T11:11:31;27.30;62.60
4677;DHT22;2352;48.180;11.478;2022-07-29T11:14:56;27.60;62.10
4677;DHT22;2352;48.180;11.478;2022-07-29T11:18:06;27.90;62.10
4677;DHT22;2352;48.180;11.478;2022-07-29T11:21:37;28.00;60.70
4677;DHT22;2352;48.180;11.478;2022-07-29T11:25:13;28.20;59.10
4677;DHT22;2352;48.180;11.478;2022-07-29T11:28:20;28.10;56.90
4677;DHT22;2352;48.180;11.478;2022-07-29T11:31:37;28.00;55.50
4677;DHT22;2352;48.180;11.478;2022-07-29T11:34:40;27.80;56.50
4677;DHT22;2352;48.180;11.478;2022-07-29T11:37:45;27.90;57.10
4677;DHT22;2352;48.180;11.478;2022-07-29T11:41:19;28.10;56.80
4677;DHT22;2352;48.180;11.478;2022-07-29T11:48:28;28.00;55.50
4677;DHT22;2352;48.180;11.478;2022-07-29T11:51:33;28.20;53.80
4677;DHT22;2352;48.180;11.478;2022-07-29T11:54:40;28.30;54.50
4677;DHT22;2352;48.180;11.478;2022-07-29T11:58:04;28.10;54.20
4677;DHT22;2352;48.180;11.478;2022-07-29T12:01:07;28.20;53.40
4677;DHT22;2352;48.180;11.478;2022-07-29T12:04:15;28.20;54.20
4677;DHT22;2352;48.180;11.478;2022-07-29T12:07:26;28.00;52.90
4677;DHT22;2352;48.180;11.478;2022-07-29T12:10:37;27.90;54.70
4677;DHT22;2352;48.180;11.478;2022-07-29T12:13:40;28.00;55.10
4677;DHT22;2352;48.180;11.478;2022-07-29T12:16:43;28.00;55.30
4677;DHT22;2352;48.180;11.478;2022-07-29T12:19:46;28.10;55.90
4677;DHT22;2352;48.180;11.478;2022-07-29T12:22:51;28.20;55.10
4677;DHT22;2352;48.180;11.478;2022-07-29T12:25:58;28.20;54.80
4677;DHT22;2352;48.180;11.478;2022-07-29T12:29:01;28.30;53.70
4677;DHT22;2352;48.180;11.478;2022-07-29T12:32:12;28.30;53.00
4677;DHT22;2352;48.180;11.478;2022-07-29T12:35:20;28.30;53.50
4677;DHT22;2352;48.180;11.478;2022-07-29T12:38:24;28.30;54.20
4677;DHT22;2352;48.180;11.478;2022-07-29T12:41:29;28.20;54.20
4677;DHT22;2352;48.180;11.478;2022-07-29T12:44:45;28.20;53.90
4677;DHT22;2352;48.180;11.478;2022-07-29T12:47:52;28.20;53.20
4677;DHT22;2352;48.180;11.478;2022-07-29T12:50:57;28.20;54.20
4677;DHT22;2352;48.180;11.478;2022-07-29T12:54:05;28.20;53.50
4677;DHT22;2352;48.180;11.478;2022-07-29T12:57:10;28.10;52.40
4677;DHT22;2352;48.180;11.478;2022-07-29T13:00:23;28.10;54.10
4677;DHT22;2352;48.180;11.478;2022-07-29T13:03:26;28.00;53.60
4677;DHT22;2352;48.180;11.478;2022-07-29T13:06:38;28.00;54.20
4677;DHT22;2352;48.180;11.478;2022-07-29T13:09:43;28.00;54.50
4677;DHT22;2352;48.180;11.478;2022-07-29T13:13:04;28.00;54.90
4677;DHT22;2352;48.180;11.478;2022-07-29T13:16:09;27.60;53.90
4677;DHT22;2352;48.180;11.478;2022-07-29T13:19:12;27.50;55.50
4677;DHT22;2352;48.180;11.478;2022-07-29T13:22:17;27.40;54.80
4677;DHT22;2352;48.180;11.478;2022-07-29T13:25:24;27.40;57.10
4677;DHT22;2352;48.180;11.478;2022-07-29T13:28:29;27.40;56.10
4677;DHT22;2352;48.180;11.478;2022-07-29T13:31:32;27.20;56.70
4677;DHT22;2352;48.180;11.478;2022-07-29T13:34:35;27.30;58.40
4677;DHT22;2352;48.180;11.478;2022-07-29T13:37:37;27.30;58.00
4677;DHT22;2352;48.180;11.478;2022-07-29T13:40:40;27.20;58.10
4677;DHT22;2352;48.180;11.478;2022-07-29T13:43:45;27.30;58.30
4677;DHT22;2352;48.180;11.478;2022-07-29T13:46:50;27.30;57.50
4677;DHT22;2352;48.180;11.478;2022-07-29T13:49:53;27.40;57.00
4677;DHT22;2352;48.180;11.478;2022-07-29T13:52:56;27.30;55.30
4677;DHT22;2352;48.180;11.478;2022-07-29T13:55:59;27.30;56.30
4677;DHT22;2352;48.180;11.478;2022-07-29T13:59:04;27.30;56.90
4677;DHT22;2352;48.180;11.478;2022-07-29T14:02:07;27.30;57.60
4677;DHT22;2352;48.180;11.478;2022-07-29T14:05:10;27.40;58.40
4677;DHT22;2352;48.180;11.478;2022-07-29T14:08:13;27.40;57.50
4677;DHT22;2352;48.180;11.478;2022-07-29T14:11:16;27.40;57.60
4677;DHT22;2352;48.180;11.478;2022-07-29T14:14:21;27.40;55.40
4677;DHT22;2352;48.180;11.478;2022-07-29T14:17:24;27.40;58.60
4677;DHT22;2352;48.180;11.478;2022-07-29T14:20:27;27.40;58.40
4677;DHT22;2352;48.180;11.478;2022-07-29T14:23:31;27.20;55.50
4677;DHT22;2352;48.180;11.478;2022-07-29T14:26:34;26.90;56.50
4677;DHT22;2352;48.180;11.478;2022-07-29T14:29:38;26.70;56.30
4677;DHT22;2352;48.180;11.478;2022-07-29T14:32:41;26.70;57.60
4677;DHT22;2352;48.180;11.478;2022-07-29T14:35:44;26.60;57.70
4677;DHT22;2352;48.180;11.478;2022-07-29T14:38:47;26.80;58.50
4677;DHT22;2352;48.180;11.478;2022-07-29T14:41:51;26.90;58.00
4677;DHT22;2352;48.180;11.478;2022-07-29T14:44:56;26.70;57.40
4677;DHT22;2352;48.180;11.478;2022-07-29T14:47:59;26.50;58.50
4677;DHT22;2352;48.180;11.478;2022-07-29T14:51:02;26.40;58.60
4677;DHT22;2352;48.180;11.478;2022-07-29T14:54:05;26.60;59.00
4677;DHT22;2352;48.180;11.478;2022-07-29T14:57:08;26.60;60.00
4677;DHT22;2352;48.180;11.478;2022-07-29T15:00:13;26.80;60.80
4677;DHT22;2352;48.180;11.478;2022-07-29T15:03:16;26.80;60.00
4677;DHT22;2352;48.180;11.478;2022-07-29T15:06:25;26.50;59.30
4677;DHT22;2352;48.180;11.478;2022-07-29T15:09:28;26.50;59.50
4677;DHT22;2352;48.180;11.478;2022-07-29T15:12:31;26.60;59.90
4677;DHT22;2352;48.180;11.478;2022-07-29T15:15:35;26.60;60.40
4677;DHT22;2352;48.180;11.478;2022-07-29T15:18:38;26.60;61.10
4677;DHT22;2352;48.180;11.478;2022-07-29T15:21:42;26.70;61.60
4677;DHT22;2352;48.180;11.478;2022-07-29T15:24:49;26.70;62.90
4677;DHT22;2352;48.180;11.478;2022-07-29T15:27:52;26.50;62.30
4677;DHT22;2352;48.180;11.478;2022-07-29T15:31:03;26.30;63.30
4677;DHT22;2352;48.180;11.478;2022-07-29T15:34:06;26.40;64.50
4677;DHT22;2352;48.180;11.478;2022-07-29T15:37:09;26.40;64.80
4677;DHT22;2352;48.180;11.478;2022-07-29T15:40:13;26.50;64.70
4677;DHT22;2352;48.180;11.478;2022-07-29T15:43:16;26.60;65.40
4677;DHT22;2352;48.180;11.478;2022-07-29T15:46:20;26.60;65.50
4677;DHT22;2352;48.180;11.478;2022-07-29T15:49:41;26.70;64.60
4677;DHT22;2352;48.180;11.478;2022-07-29T15:52:49;26.60;64.60
4677;DHT22;2352;48.180;11.478;2022-07-29T15:55:52;26.60;64.30
4677;DHT22;2352;48.180;11.478;2022-07-29T15:58:55;26.60;65.00
4677;DHT22;2352;48.180;11.478;2022-07-29T16:02:00;26.50;64.20
4677;DHT22;2352;48.180;11.478;2022-07-29T16:05:04;26.40;63.90
4677;DHT22;2352;48.180;11.478;2022-07-29T16:08:10;26.20;64.10
4677;DHT22;2352;48.180;11.478;2022-07-29T16:11:13;26.20;65.20
4677;DHT22;2352;48.180;11.478;2022-07-29T16:14:16;26.30;64.60
4677;DHT22;2352;48.180;11.478;2022-07-29T16:17:20;26.30;64.90
4677;DHT22;2352;48.180;11.478;2022-07-29T16:20:23;26.30;64.70
4677;DHT22;2352;48.180;11.478;2022-07-29T16:23:27;26.20;65.10
4677;DHT22;2352;48.180;11.478;2022-07-29T16:26:30;26.10;65.30
4677;DHT22;2352;48.180;11.478;2022-07-29T16:29:33;26.10;65.80
4677;DHT22;2352;48.180;11.478;2022-07-29T16:32:39;26.00;65.70
4677;DHT22;2352;48.180;11.478;2022-07-29T16:35:42;26.00;66.10
4677;DHT22;2352;48.180;11.478;2022-07-29T16:38:45;26.00;66.50
4677;DHT22;2352;48.180;11.478;2022-07-29T16:41:48;26.10;66.30
4677;DHT22;2352;48.180;11.478;2022-07-29T16:44:51;26.00;66.40
4677;DHT22;2352;48.180;11.478;2022-07-29T16:47:55;25.90;67.70
4677;DHT22;2352;48.180;11.478;2022-07-29T16:51:02;25.90;68.50
4677;DHT22;2352;48.180;11.478;2022-07-29T16:54:05;25.80;69.00
4677;DHT22;2352;48.180;11.478;2022-07-29T16:57:11;25.90;70.60
4677;DHT22;2352;48.180;11.478;2022-07-29T17:00:16;25.90;63.70
4677;DHT22;2352;48.180;11.478;2022-07-29T17:03:20;25.90;61.90
4677;DHT22;2352;48.180;11.478;2022-07-29T17:06:23;25.80;64.00
4677;DHT22;2352;48.180;11.478;2022-07-29T17:09:26;25.60;65.70
4677;DHT22;2352;48.180;11.478;2022-07-29T17:12:29;25.60;66.20
4677;DHT22;2352;48.180;11.478;2022-07-29T17:15:32;25.40;66.40
4677;DHT22;2352;48.180;11.478;2022-07-29T17:18:38;25.30;67.60
4677;DHT22;2352;48.180;11.478;2022-07-29T17:21:41;25.40;69.00
4677;DHT22;2352;48.180;11.478;2022-07-29T17:24:49;25.50;70.60
4677;DHT22;2352;48.180;11.478;2022-07-29T17:27:52;25.50;73.20
4677;DHT22;2352;48.180;11.478;2022-07-29T17:31:01;25.40;73.40
4677;DHT22;2352;48.180;11.478;2022-07-29T17:34:06;25.30;69.30
4677;DHT22;2352;48.180;11.478;2022-07-29T17:37:10;25.10;67.40
4677;DHT22;2352;48.180;11.478;2022-07-29T17:40:13;24.90;66.50
4677;DHT22;2352;48.180;11.478;2022-07-29T17:43:16;24.50;72.30
4677;DHT22;2352;48.180;11.478;2022-07-29T17:46:20;24.30;76.90
4677;DHT22;2352;48.180;11.478;2022-07-29T17:49:27;24.20;78.00
4677;DHT22;2352;48.180;11.478;2022-07-29T17:52:30;24.20;76.80
4677;DHT22;2352;48.180;11.478;2022-07-29T17:55:33;24.10;76.30
4677;DHT22;2352;48.180;11.478;2022-07-29T17:58:36;23.90;78.30
4677;DHT22;2352;48.180;11.478;2022-07-29T18:01:40;23.70;78.40
4677;DHT22;2352;48.180;11.478;2022-07-29T18:04:44;23.20;78.00
4677;DHT22;2352;48.180;11.478;2022-07-29T18:07:51;23.20;81.80
4677;DHT22;2352;48.180;11.478;2022-07-29T18:10:56;23.20;80.80
4677;DHT22;2352;48.180;11.478;2022-07-29T18:13:59;23.10;82.40
4677;DHT22;2352;48.180;11.478;2022-07-29T18:17:03;23.20;81.90
4677;DHT22;2352;48.180;11.478;2022-07-29T18:20:08;23.10;80.80
4677;DHT22;2352;48.180;11.478;2022-07-29T18:23:12;23.10;81.50
4677;DHT22;2352;48.180;11.478;2022-07-29T18:26:15;22.90;83.20
4677;DHT22;2352;48.180;11.478;2022-07-29T18:29:18;22.90;84.70
4677;DHT22;2352;48.180;11.478;2022-07-29T18:32:21;22.60;84.30
4677;DHT22;2352;48.180;11.478;2022-07-29T18:35:31;22.70;86.10
4677;DHT22;2352;48.180;11.478;2022-07-29T18:38:34;22.80;85.50
4677;DHT22;2352;48.180;11.478;2022-07-29T18:41:37;22.80;86.20
4677;DHT22;2352;48.180;11.478;2022-07-29T18:44:51;22.70;86.30
4677;DHT22;2352;48.180;11.478;2022-07-29T18:47:55;22.80;87.20
4677;DHT22;2352;48.180;11.478;2022-07-29T18:50:59;22.80;86.00
4677;DHT22;2352;48.180;11.478;2022-07-29T18:54:10;22.80;85.00
4677;DHT22;2352;48.180;11.478;2022-07-29T18:57:13;22.70;86.20
4677;DHT22;2352;48.180;11.478;2022-07-29T19:00:35;22.60;85.60
4677;DHT22;2352;48.180;11.478;2022-07-29T19:03:39;22.40;87.50
4677;DHT22;2352;48.180;11.478;2022-07-29T19:06:43;22.50;87.70
4677;DHT22;2352;48.180;11.478;2022-07-29T19:09:46;22.30;88.00
4677;DHT22;2352;48.180;11.478;2022-07-29T19:12:50;22.30;87.80
4677;DHT22;2352;48.180;11.478;2022-07-29T19:15:53;22.20;88.00
4677;DHT22;2352;48.180;11.478;2022-07-29T19:18:56;22.20;89.20
4677;DHT22;2352;48.180;11.478;2022-07-29T19:22:02;22.10;88.60
4677;DHT22;2352;48.180;11.478;2022-07-29T19:25:06;21.90;90.30
4677;DHT22;2352;48.180;11.478;2022-07-29T19:28:09;21.90;90.80
4677;DHT22;2352;48.180;11.478;2022-07-29T19:31:12;21.90;91.20
4677;DHT22;2352;48.180;11.478;2022-07-29T19:34:15;21.90;90.60
4677;DHT22;2352;48.180;11.478;2022-07-29T19:37:20;21.90;90.90
4677;DHT22;2352;48.180;11.478;2022-07-29T19:40:23;21.90;90.50
4677;DHT22;2352;48.180;11.478;2022-07-29T19:43:26;21.90;91.20
4677;DHT22;2352;48.180;11.478;2022-07-29T19:46:49;21.50;91.30
4677;DHT22;2352;48.180;11.478;2022-07-29T19:49:52;21.30;92.00
4677;DHT22;2352;48.180;11.478;2022-07-29T19:52:57;21.40;92.60
4677;DHT22;2352;48.180;11.478;2022-07-29T19:56:00;21.40;93.10
4677;DHT22;2352;48.180;11.478;2022-07-29T19:59:03;21.50;92.90
4677;DHT22;2352;48.180;11.478;2022-07-29T20:02:08;21.50;92.60